Time;durP1;ratioP1;P1;durP2;ratioP2;P2;SDS_P1;SDS_P2;PMS_P1;PMS_P2;Temp;Humidity;BMP_temperature;BMP_pressure;BME280_temperature;BME280_humidity;BME280_pressure;Samples;Min_cycle;Max_cycle;Signal;HPM_P1;HPM_P2
2021/11/23 00:00:19;;;;;;;6.75;5.60;;;4.20;99.90;;;;;;4942682;28;20172;-78
2021/11/23 00:02:45;;;;;;;7.78;6.30;;;4.20;99.90;;;;;;4975719;28;20168;-78
2021/11/23 00:05:12;;;;;;;5.85;4.78;;;4.20;99.90;;;;;;4975785;28;20202;-78
2021/11/23 00:07:38;;;;;;;5.90;5.00;;;4.20;99.90;;;;;;4975408;28;20191;-78
2021/11/23 00:10:06;;;;;;;9.97;6.70;;;4.20;99.90;;;;;;4975870;28;20164;-78
2021/11/23 00:12:33;;;;;;;7.07;5.85;;;4.20;99.90;;;;;;4975459;28;21209;-78
2021/11/23 00:14:59;;;;;;;7.40;6.03;;;4.20;99.90;;;;;;4958447;28;20263;-78
2021/11/23 00:17:24;;;;;;;8.60;6.80;;;4.10;99.90;;;;;;4975210;28;20620;-78
2021/11/23 00:19:50;;;;;;;10.20;7.90;;;4.10;99.90;;;;;;4962928;28;20926;-78
2021/11/23 00:22:17;;;;;;;10.13;7.83;;;4.10;99.90;;;;;;4958726;28;20266;-78
2021/11/23 00:24:43;;;;;;;11.52;7.88;;;4.10;99.90;;;;;;4975388;28;20204;-78
2021/11/23 00:27:10;;;;;;;12.30;8.13;;;4.10;99.90;;;;;;4957724;28;20282;-78
2021/11/23 00:29:35;;;;;;;11.65;8.60;;;4.10;99.90;;;;;;4958159;28;20278;-78
2021/11/23 00:32:02;;;;;;;11.43;8.87;;;4.10;99.90;;;;;;4975245;28;20819;-78
2021/11/23 00:34:29;;;;;;;11.02;9.00;;;4.10;99.90;;;;;;4957892;28;20167;-78
2021/11/23 00:36:55;;;;;;;15.02;10.43;;;4.10;99.90;;;;;;4974944;28;20190;-78
2021/11/23 00:39:21;;;;;;;11.93;10.10;;;4.10;99.90;;;;;;4942135;28;20176;-78
2021/11/23 00:41:49;;;;;;;12.03;10.30;;;4.10;99.90;;;;;;4975574;28;20673;-78
2021/11/23 00:44:19;;;;;;;11.75;9.82;;;4.10;99.90;;;;;;4957850;28;20180;-78
2021/11/23 00:46:45;;;;;;;10.98;9.85;;;4.00;99.90;;;;;;4940418;28;20336;-78
2021/11/23 00:49:13;;;;;;;10.40;9.10;;;4.00;99.90;;;;;;4975122;28;20176;-78
2021/11/23 00:51:39;;;;;;;12.98;8.80;;;4.00;99.90;;;;;;4957485;28;20636;-78
2021/11/23 00:54:05;;;;;;;10.90;9.73;;;4.00;99.90;;;;;;4957755;28;20170;-78
2021/11/23 00:56:31;;;;;;;11.95;9.95;;;4.00;99.90;;;;;;4976437;28;20658;-78
2021/11/23 00:58:57;;;;;;;10.18;8.20;;;4.00;99.90;;;;;;4977846;28;20544;-77
2021/11/23 01:01:23;;;;;;;13.57;8.23;;;4.00;99.90;;;;;;4957589;28;20255;-78
2021/11/23 01:03:49;;;;;;;10.27;9.23;;;4.00;99.90;;;;;;4974793;28;20583;-77
2021/11/23 01:06:15;;;;;;;11.10;8.23;;;4.00;99.90;;;;;;4956871;28;20615;-78
2021/11/23 01:08:41;;;;;;;11.67;8.60;;;4.00;99.90;;;;;;4974878;28;20575;-77
2021/11/23 01:11:08;;;;;;;9.03;8.10;;;4.00;99.90;;;;;;4974619;28;20575;-78
2021/11/23 01:13:34;;;;;;;10.73;8.90;;;4.00;99.90;;;;;;4957345;28;21261;-77
2021/11/23 01:16:00;;;;;;;9.48;8.48;;;4.00;99.90;;;;;;4974297;28;20214;-78
2021/11/23 01:18:27;;;;;;;12.23;8.50;;;4.00;99.90;;;;;;4973917;28;20165;-78
2021/11/23 01:20:53;;;;;;;9.20;7.32;;;4.00;99.90;;;;;;4941065;28;20195;-78
2021/11/23 01:23:20;;;;;;;8.97;7.43;;;4.00;99.90;;;;;;4957107;28;20219;-77
2021/11/23 01:25:46;;;;;;;9.18;7.32;;;3.90;99.90;;;;;;4957289;28;20671;-78
2021/11/23 01:28:12;;;;;;;10.50;8.50;;;3.90;99.90;;;;;;4974237;28;20188;-78
2021/11/23 01:30:39;;;;;;;11.00;8.98;;;3.90;99.90;;;;;;4958569;28;20610;-78
2021/11/23 01:33:05;;;;;;;9.77;8.55;;;3.90;99.90;;;;;;4957896;28;20203;-78
2021/11/23 01:35:30;;;;;;;9.30;8.40;;;3.90;99.90;;;;;;4979322;28;20168;-78
2021/11/23 01:37:56;;;;;;;10.23;9.13;;;3.90;99.90;;;;;;4965775;28;20168;-77
2021/11/23 01:40:22;;;;;;;11.00;9.03;;;3.90;99.90;;;;;;4981945;28;20180;-78
2021/11/23 01:42:49;;;;;;;10.67;8.40;;;3.90;99.90;;;;;;4956741;28;20179;-78
2021/11/23 01:45:15;;;;;;;10.95;9.32;;;3.90;99.90;;;;;;4925061;28;20654;-78
2021/11/23 01:47:41;;;;;;;9.70;8.25;;;3.90;99.90;;;;;;4973539;28;20600;-77
2021/11/23 01:50:09;;;;;;;11.50;8.47;;;3.80;99.90;;;;;;4974132;28;20208;-77
2021/11/23 01:52:36;;;;;;;10.18;7.90;;;3.80;99.90;;;;;;4973342;28;20623;-78
2021/11/23 01:55:06;;;;;;;9.38;8.38;;;3.80;99.90;;;;;;4956930;28;20217;-77
2021/11/23 01:57:33;;;;;;;9.00;8.05;;;3.80;99.90;;;;;;4972667;28;20271;-77
2021/11/23 01:59:59;;;;;;;10.25;6.88;;;3.80;99.90;;;;;;4940021;28;20262;-77
2021/11/23 02:02:25;;;;;;;11.32;7.88;;;3.80;99.90;;;;;;4973631;28;20675;-78
2021/11/23 02:04:50;;;;;;;8.77;7.97;;;3.80;99.90;;;;;;4973743;28;20172;-78
2021/11/23 02:07:18;;;;;;;8.87;7.97;;;3.90;99.90;;;;;;4955701;28;20610;-77
2021/11/23 02:09:45;;;;;;;10.48;7.40;;;3.80;99.90;;;;;;4973705;28;20179;-77
2021/11/23 02:12:11;;;;;;;9.38;7.25;;;3.90;99.90;;;;;;4944477;28;20203;-78
2021/11/23 02:14:38;;;;;;;8.73;7.28;;;3.90;99.90;;;;;;4939855;28;20203;-78
2021/11/23 02:17:04;;;;;;;7.85;6.70;;;3.90;99.90;;;;;;4973719;28;20223;-81
2021/11/23 02:19:31;;;;;;;7.47;6.75;;;3.90;99.90;;;;;;4956185;28;20218;-81
2021/11/23 02:21:57;;;;;;;7.53;6.15;;;4.00;99.90;;;;;;4975408;28;20545;-81
2021/11/23 02:24:23;;;;;;;6.97;5.93;;;3.90;99.90;;;;;;4975236;28;20180;-81
2021/11/23 02:26:49;;;;;;;6.93;6.00;;;3.90;99.90;;;;;;4972734;28;20331;-81
2021/11/23 02:29:15;;;;;;;8.80;7.20;;;3.90;99.90;;;;;;4973222;28;20531;-81
2021/11/23 02:31:41;;;;;;;8.40;7.65;;;3.90;99.90;;;;;;4973411;28;20586;-81
2021/11/23 02:34:07;;;;;;;9.60;8.43;;;3.80;99.90;;;;;;4973154;28;20176;-81
2021/11/23 02:36:35;;;;;;;10.63;7.47;;;3.70;99.90;;;;;;4972634;28;20689;-81
2021/11/23 02:39:03;;;;;;;9.18;6.82;;;3.70;99.90;;;;;;4973199;28;20654;-81
2021/11/23 02:41:29;;;;;;;8.07;6.85;;;3.70;99.90;;;;;;4955970;28;20174;-81
2021/11/23 02:43:55;;;;;;;7.77;6.97;;;3.70;99.90;;;;;;4972915;28;20163;-79
2021/11/23 02:46:20;;;;;;;9.00;6.73;;;3.60;99.90;;;;;;4955296;28;20607;-80
2021/11/23 02:48:46;;;;;;;7.93;6.80;;;3.60;99.90;;;;;;4978044;28;20666;-79
2021/11/23 02:51:16;;;;;;;7.07;6.37;;;3.60;99.90;;;;;;4973185;28;20567;-80
2021/11/23 02:53:43;;;;;;;10.07;7.55;;;3.60;99.90;;;;;;4972342;28;21018;-80
2021/11/23 02:56:11;;;;;;;8.23;7.20;;;3.60;99.90;;;;;;4972435;28;20724;-79
2021/11/23 02:58:37;;;;;;;9.82;8.82;;;3.60;99.90;;;;;;4955578;28;20230;-80
2021/11/23 03:01:06;;;;;;;11.70;8.63;;;3.50;99.90;;;;;;4972950;28;20199;-79
2021/11/23 03:03:32;;;;;;;8.77;7.97;;;3.50;99.90;;;;;;4972625;28;20601;-79
2021/11/23 03:05:58;;;;;;;8.80;7.90;;;3.50;99.90;;;;;;4939348;28;20222;-80
2021/11/23 03:08:25;;;;;;;9.30;6.80;;;3.40;99.90;;;;;;4972314;28;20176;-79
2021/11/23 03:10:51;;;;;;;7.47;6.75;;;3.40;99.90;;;;;;4972110;28;20164;-80
2021/11/23 03:13:18;;;;;;;9.63;6.45;;;3.40;99.90;;;;;;4955181;28;20340;-80
2021/11/23 03:15:44;;;;;;;7.25;6.55;;;3.40;99.90;;;;;;4972576;28;20171;-80
2021/11/23 03:18:10;;;;;;;7.50;6.13;;;3.50;99.90;;;;;;4972428;28;20155;-79
2021/11/23 03:20:36;;;;;;;7.20;6.33;;;3.50;99.90;;;;;;4955220;28;20225;-80
2021/11/23 03:23:03;;;;;;;8.52;7.63;;;3.50;99.90;;;;;;4971779;28;20595;-79
2021/11/23 03:25:29;;;;;;;9.50;6.63;;;3.50;99.90;;;;;;4975052;28;20191;-80
2021/11/23 03:27:56;;;;;;;7.50;6.70;;;3.50;99.90;;;;;;4973230;28;20197;-80
2021/11/23 03:30:26;;;;;;;8.73;6.68;;;3.50;99.90;;;;;;4971407;28;20705;-80
2021/11/23 03:32:54;;;;;;;8.30;6.80;;;3.40;99.90;;;;;;4971787;28;20195;-79
2021/11/23 03:35:21;;;;;;;7.82;6.63;;;3.50;99.90;;;;;;4972256;28;20183;-80
2021/11/23 03:37:47;;;;;;;9.32;6.50;;;3.50;99.90;;;;;;4953502;28;20219;-80
2021/11/23 03:40:14;;;;;;;8.63;6.82;;;3.40;99.90;;;;;;4938206;28;20172;-80
2021/11/23 03:42:40;;;;;;;8.73;7.75;;;3.40;99.90;;;;;;4955166;28;20499;-80
2021/11/23 03:45:07;;;;;;;10.63;8.35;;;3.40;99.90;;;;;;4972216;28;20176;-79
2021/11/23 03:47:35;;;;;;;10.23;8.07;;;3.40;99.90;;;;;;4971629;28;20191;-80
2021/11/23 03:50:01;;;;;;;10.63;7.40;;;3.30;99.90;;;;;;4972122;28;20636;-80
2021/11/23 03:52:27;;;;;;;12.17;8.00;;;3.30;99.90;;;;;;4968279;28;20269;-81
2021/11/23 03:54:54;;;;;;;15.30;8.95;;;3.20;99.90;;;;;;4946859;28;20587;-81
2021/11/23 03:57:21;;;;;;;8.50;7.07;;;3.20;99.90;;;;;;4937866;28;20203;-81
2021/11/23 03:59:47;;;;;;;8.15;7.15;;;3.20;99.90;;;;;;4954676;28;20194;-81
2021/11/23 04:02:15;;;;;;;11.73;8.70;;;3.20;99.90;;;;;;4972007;28;20176;-82
2021/11/23 04:04:41;;;;;;;9.45;7.60;;;3.20;99.90;;;;;;4976349;28;20176;-81
2021/11/23 04:07:07;;;;;;;10.43;6.87;;;3.20;99.90;;;;;;4971544;28;20200;-81
2021/11/23 04:09:32;;;;;;;10.20;6.40;;;3.20;99.90;;;;;;4954229;28;20180;-81
2021/11/23 04:11:58;;;;;;;9.33;7.00;;;3.10;99.90;;;;;;4989380;28;20233;-81
2021/11/23 04:14:24;;;;;;;13.47;9.20;;;3.20;99.90;;;;;;4990163;28;20168;-81
2021/11/23 04:16:49;;;;;;;10.57;8.17;;;3.20;99.90;;;;;;4973941;28;20199;-81
2021/11/23 04:19:15;;;;;;;11.43;9.63;;;3.10;99.90;;;;;;4974711;28;20172;-80
2021/11/23 04:21:41;;;;;;;10.47;7.70;;;3.10;99.90;;;;;;4974653;28;20238;-80
2021/11/23 04:24:07;;;;;;;8.37;7.50;;;3.10;99.90;;;;;;4976372;28;20172;-80
2021/11/23 04:26:34;;;;;;;10.27;7.20;;;3.10;99.90;;;;;;4974873;28;20610;-80
2021/11/23 04:29:00;;;;;;;10.15;7.50;;;3.10;99.90;;;;;;4975575;28;20210;-80
2021/11/23 04:31:26;;;;;;;10.15;7.60;;;3.20;99.90;;;;;;4975224;28;20171;-80
2021/11/23 04:33:52;;;;;;;9.50;7.70;;;3.20;99.90;;;;;;4974975;28;20206;-80
2021/11/23 04:36:18;;;;;;;10.18;7.45;;;3.20;99.90;;;;;;4974833;28;20661;-80
2021/11/23 04:38:44;;;;;;;9.70;7.40;;;3.20;99.90;;;;;;4975233;28;20263;-80
2021/11/23 04:41:10;;;;;;;10.10;7.73;;;3.10;99.90;;;;;;4963380;28;20182;-80
2021/11/23 04:43:36;;;;;;;8.73;6.30;;;3.10;99.90;;;;;;4974866;28;20182;-80
2021/11/23 04:46:02;;;;;;;9.30;7.07;;;3.10;99.90;;;;;;4957755;28;20562;-80
2021/11/23 04:48:28;;;;;;;9.98;7.95;;;3.20;99.90;;;;;;4974491;28;20175;-80
2021/11/23 04:50:55;;;;;;;10.10;7.50;;;3.20;99.90;;;;;;4975171;28;20175;-80
2021/11/23 04:53:22;;;;;;;8.30;7.28;;;3.30;99.90;;;;;;4957060;28;20203;-80
2021/11/23 04:55:48;;;;;;;7.45;6.75;;;3.20;99.90;;;;;;4974929;28;20200;-81
2021/11/23 04:58:14;;;;;;;8.45;6.88;;;3.20;99.90;;;;;;4957099;28;20766;-80
2021/11/23 05:00:40;;;;;;;10.50;7.43;;;3.20;99.90;;;;;;4974909;28;20208;-80
2021/11/23 05:03:05;;;;;;;9.53;6.80;;;3.30;99.90;;;;;;4974431;28;20579;-80
2021/11/23 05:05:31;;;;;;;8.00;7.03;;;3.30;99.90;;;;;;4957471;28;20603;-80
2021/11/23 05:07:57;;;;;;;10.05;6.88;;;3.30;99.90;;;;;;4974141;28;20516;-80
2021/11/23 05:10:23;;;;;;;8.30;7.40;;;3.30;99.90;;;;;;4974740;28;20175;-80
2021/11/23 05:12:49;;;;;;;8.87;6.93;;;3.40;99.90;;;;;;4974361;28;20203;-80
2021/11/23 05:15:14;;;;;;;10.20;8.03;;;3.40;99.90;;;;;;4941497;28;20187;-80
2021/11/23 05:17:40;;;;;;;9.03;7.20;;;3.50;99.90;;;;;;4957872;28;20195;-80
2021/11/23 05:20:07;;;;;;;10.82;7.53;;;3.50;99.90;;;;;;4974154;28;20226;-80
2021/11/23 05:22:33;;;;;;;8.60;7.18;;;3.50;99.90;;;;;;4956990;28;20226;-80
2021/11/23 05:24:59;;;;;;;6.70;6.00;;;3.60;99.90;;;;;;4956892;28;20172;-79
2021/11/23 05:27:25;;;;;;;11.30;6.83;;;3.60;99.90;;;;;;4940696;28;20693;-80
2021/11/23 05:29:50;;;;;;;8.03;6.83;;;3.70;99.90;;;;;;4956711;28;20311;-80
2021/11/23 05:32:16;;;;;;;9.80;7.93;;;3.80;99.90;;;;;;4974397;28;20262;-80
2021/11/23 05:34:42;;;;;;;8.67;7.77;;;3.90;99.90;;;;;;4956405;28;20176;-80
2021/11/23 05:37:08;;;;;;;9.23;5.90;;;4.10;99.90;;;;;;4973809;28;20199;-80
2021/11/23 05:39:33;;;;;;;11.97;8.67;;;4.10;99.90;;;;;;4974079;28;20626;-80
2021/11/23 05:41:59;;;;;;;12.73;8.40;;;4.20;99.90;;;;;;4974495;28;20175;-80
2021/11/23 05:44:25;;;;;;;9.93;7.73;;;4.20;99.90;;;;;;4974457;28;20226;-80
2021/11/23 05:46:51;;;;;;;10.00;9.00;;;4.20;99.90;;;;;;4975082;28;20199;-80
2021/11/23 05:49:17;;;;;;;10.13;7.50;;;4.20;99.90;;;;;;4974487;28;20666;-80
2021/11/23 05:51:44;;;;;;;9.98;8.20;;;4.20;99.90;;;;;;4974652;28;20258;-80
2021/11/23 05:54:10;;;;;;;8.93;7.60;;;4.30;99.90;;;;;;4941785;28;20167;-80
2021/11/23 05:56:36;;;;;;;8.15;7.35;;;4.40;99.90;;;;;;4956881;28;20222;-80
2021/11/23 05:59:02;;;;;;;9.50;8.60;;;4.40;99.90;;;;;;4956536;28;20171;-80
2021/11/23 06:01:27;;;;;;;10.95;8.10;;;4.40;99.90;;;;;;4973691;28;20586;-80
2021/11/23 06:03:53;;;;;;;8.90;7.27;;;4.40;99.90;;;;;;4973224;28;20615;-80
2021/11/23 06:06:19;;;;;;;7.87;7.00;;;4.40;99.90;;;;;;4955766;28;20195;-80
2021/11/23 06:08:45;;;;;;;12.90;9.47;;;4.50;99.90;;;;;;4973968;28;20172;-80
2021/11/23 06:11:10;;;;;;;12.90;8.80;;;4.50;99.90;;;;;;4973580;28;20275;-80
2021/11/23 06:13:37;;;;;;;8.40;7.60;;;4.50;99.90;;;;;;4973333;28;20199;-80
2021/11/23 06:16:05;;;;;;;9.68;7.78;;;4.40;99.90;;;;;;4955890;28;20188;-80
2021/11/23 06:18:31;;;;;;;7.95;7.15;;;4.50;99.90;;;;;;4955869;28;20226;-80
2021/11/23 06:20:57;;;;;;;9.88;7.32;;;4.50;99.90;;;;;;4973433;28;20632;-80
2021/11/23 06:23:24;;;;;;;10.43;7.60;;;4.50;99.90;;;;;;4973335;28;20179;-80
2021/11/23 06:25:52;;;;;;;12.23;8.23;;;4.60;99.90;;;;;;4955998;28;20637;-80
2021/11/23 06:28:20;;;;;;;7.80;6.72;;;4.60;99.90;;;;;;4972973;28;20164;-80
2021/11/23 06:30:46;;;;;;;9.38;7.78;;;4.70;99.90;;;;;;4973888;28;20195;-80
2021/11/23 06:33:12;;;;;;;10.30;8.90;;;4.70;99.90;;;;;;4963368;28;20270;-80
2021/11/23 06:35:39;;;;;;;9.45;7.25;;;4.80;99.90;;;;;;4955870;28;20215;-80
2021/11/23 06:38:06;;;;;;;9.23;7.50;;;4.80;99.90;;;;;;4974930;28;20168;-80
2021/11/23 06:40:34;;;;;;;7.95;7.22;;;4.80;99.90;;;;;;4973015;28;20170;-80
2021/11/23 06:42:59;;;;;;;9.18;7.55;;;4.70;99.90;;;;;;4972544;28;20691;-80
2021/11/23 06:45:26;;;;;;;8.20;7.40;;;4.70;99.90;;;;;;4972638;28;20176;-79
2021/11/23 06:47:51;;;;;;;8.52;7.57;;;4.80;99.90;;;;;;4972151;28;21185;-79
2021/11/23 06:50:18;;;;;;;9.13;7.27;;;4.70;99.90;;;;;;4955549;28;20180;-80
2021/11/23 06:52:43;;;;;;;9.77;8.15;;;4.70;99.90;;;;;;4972648;28;20573;-80
2021/11/23 06:55:10;;;;;;;8.20;7.40;;;4.80;99.90;;;;;;4972941;28;20254;-80
2021/11/23 06:57:36;;;;;;;11.90;8.57;;;4.80;99.90;;;;;;4954815;28;20610;-80
2021/11/23 07:00:04;;;;;;;14.70;10.00;;;4.80;99.90;;;;;;4939557;28;20176;-80
2021/11/23 07:02:30;;;;;;;10.70;8.52;;;4.70;99.90;;;;;;4972163;28;20575;-80
2021/11/23 07:04:56;;;;;;;8.90;7.50;;;4.70;99.90;;;;;;4972775;28;20187;-80
2021/11/23 07:07:21;;;;;;;8.60;7.40;;;4.70;99.90;;;;;;4972144;28;20187;-80
2021/11/23 07:09:47;;;;;;;10.33;9.23;;;4.80;99.90;;;;;;4978172;28;20168;-79
2021/11/23 07:12:13;;;;;;;8.83;7.90;;;4.80;99.90;;;;;;4955209;28;20206;-79
2021/11/23 07:14:39;;;;;;;11.80;9.80;;;4.80;99.90;;;;;;4972493;28;20603;-80
2021/11/23 07:17:05;;;;;;;11.63;9.23;;;4.80;99.90;;;;;;4971845;28;20649;-80
2021/11/23 07:19:32;;;;;;;9.80;8.70;;;4.70;99.90;;;;;;4972680;28;20250;-80
2021/11/23 07:21:58;;;;;;;13.02;9.25;;;4.70;99.90;;;;;;4954976;28;20176;-80
2021/11/23 07:24:24;;;;;;;11.03;9.80;;;4.60;99.90;;;;;;4972334;28;20182;-79
2021/11/23 07:26:49;;;;;;;13.00;10.53;;;4.60;99.90;;;;;;4954739;28;20187;-80
2021/11/23 07:29:15;;;;;;;10.40;9.00;;;4.60;99.90;;;;;;4971115;28;20605;-80
2021/11/23 07:31:42;;;;;;;14.60;9.98;;;4.60;99.90;;;;;;4972449;28;20172;-80
2021/11/23 07:34:08;;;;;;;13.88;9.05;;;4.60;99.90;;;;;;4972075;28;20182;-80
2021/11/23 07:36:34;;;;;;;11.80;9.18;;;4.50;99.90;;;;;;4971956;28;20188;-80
2021/11/23 07:39:01;;;;;;;11.77;9.05;;;4.60;99.90;;;;;;4972280;28;20583;-81
2021/11/23 07:41:28;;;;;;;12.18;9.45;;;4.60;99.90;;;;;;4955092;28;20203;-80
2021/11/23 07:43:55;;;;;;;12.82;11.48;;;4.60;99.90;;;;;;4972047;28;20183;-81
2021/11/23 07:46:21;;;;;;;11.35;9.00;;;4.60;99.90;;;;;;4976736;28;20195;-79
2021/11/23 07:48:47;;;;;;;13.57;9.63;;;4.60;99.90;;;;;;4972072;28;20533;-80
2021/11/23 07:51:13;;;;;;;12.57;9.53;;;4.60;99.90;;;;;;4972095;28;20183;-81
2021/11/23 07:53:40;;;;;;;14.80;10.93;;;4.70;99.90;;;;;;4971471;28;20638;-80
2021/11/23 07:56:06;;;;;;;9.55;8.30;;;4.70;99.90;;;;;;4972423;28;20187;-81
2021/11/23 07:58:32;;;;;;;11.07;8.10;;;4.70;99.90;;;;;;4958395;28;20171;-81
2021/11/23 08:00:58;;;;;;;12.90;9.88;;;4.80;99.90;;;;;;4976047;28;20160;-80
2021/11/23 08:03:25;;;;;;;12.20;9.70;;;4.80;99.90;;;;;;4975492;28;20175;-79
2021/11/23 08:05:51;;;;;;;14.63;10.40;;;4.90;99.90;;;;;;4975955;28;20629;-80
2021/11/23 08:08:17;;;;;;;11.35;9.43;;;4.90;99.90;;;;;;4975349;28;20558;-80
2021/11/23 08:10:43;;;;;;;8.80;7.53;;;5.00;99.90;;;;;;4976066;28;20171;-80
2021/11/23 08:13:10;;;;;;;9.93;8.60;;;5.10;99.90;;;;;;4975422;28;20195;-80
2021/11/23 08:15:36;;;;;;;10.77;8.63;;;5.30;99.90;;;;;;4975365;28;20176;-80
2021/11/23 08:18:08;;;;;;;12.90;8.63;;;5.40;99.90;;;;;;4976238;28;20191;-82
2021/11/23 08:20:34;;;;;;;11.20;8.90;;;5.50;99.90;;;;;;4943517;28;20625;-81
2021/11/23 08:23:00;;;;;;;11.45;10.25;;;5.60;99.90;;;;;;4980465;28;20183;-82
2021/11/23 08:25:26;;;;;;;12.82;10.80;;;5.60;99.90;;;;;;4976679;28;20203;-82
2021/11/23 08:27:54;;;;;;;12.00;9.60;;;5.60;99.90;;;;;;4975784;28;20289;-81
2021/11/23 08:30:20;;;;;;;12.48;10.10;;;5.60;99.90;;;;;;4975365;28;20992;-82
2021/11/23 08:32:46;;;;;;;10.50;9.05;;;5.60;99.90;;;;;;4957874;28;20277;-81
2021/11/23 08:35:12;;;;;;;11.27;9.53;;;5.70;99.90;;;;;;4958034;28;20569;-81
2021/11/23 08:37:38;;;;;;;9.93;8.13;;;5.70;99.90;;;;;;4975058;28;20202;-81
2021/11/23 08:40:06;;;;;;;11.10;8.50;;;5.80;99.90;;;;;;4975339;28;21131;-81
2021/11/23 08:42:32;;;;;;;11.65;9.25;;;5.80;99.90;;;;;;4975257;28;20238;-79
2021/11/23 08:44:57;;;;;;;15.13;11.00;;;5.80;99.90;;;;;;4975107;28;20180;-79
2021/11/23 08:47:24;;;;;;;16.50;12.50;;;5.80;99.90;;;;;;4957738;28;20262;-80
2021/11/23 08:49:51;;;;;;;12.50;9.73;;;5.80;99.90;;;;;;4957985;28;20586;-80
2021/11/23 08:52:17;;;;;;;10.43;9.17;;;5.80;99.90;;;;;;4974299;28;20270;-79
2021/11/23 08:54:43;;;;;;;10.38;8.15;;;5.80;99.90;;;;;;4957516;28;20614;-79
2021/11/23 08:57:09;;;;;;;13.75;9.13;;;5.90;99.90;;;;;;4974324;28;20194;-79
2021/11/23 08:59:41;;;;;;;12.02;9.23;;;6.00;99.90;;;;;;4959119;28;20238;-79
2021/11/23 09:02:09;;;;;;;9.35;7.90;;;6.10;99.90;;;;;;4975767;28;20178;-78
2021/11/23 09:04:35;;;;;;;10.43;8.90;;;6.20;99.90;;;;;;4957311;28;20171;-78
2021/11/23 09:07:04;;;;;;;9.70;8.70;;;6.30;99.90;;;;;;4956301;28;20279;-78
2021/11/23 09:09:34;;;;;;;8.85;7.95;;;6.40;99.90;;;;;;4974803;28;20207;-75
2021/11/23 09:12:03;;;;;;;11.18;9.18;;;6.40;99.90;;;;;;4974481;28;20575;-76
2021/11/23 09:14:34;;;;;;;11.52;9.00;;;6.50;99.90;;;;;;4974603;28;20307;-75
2021/11/23 09:17:01;;;;;;;10.80;8.90;;;6.60;99.90;;;;;;4973869;28;20274;-75
2021/11/23 09:19:28;;;;;;;10.88;8.95;;;6.70;99.90;;;;;;4974578;28;20172;-76
2021/11/23 09:21:54;;;;;;;12.40;8.77;;;6.70;99.90;;;;;;4974397;28;20160;-76
2021/11/23 09:24:21;;;;;;;11.43;9.02;;;6.70;99.90;;;;;;4957090;28;20199;-76
2021/11/23 09:26:50;;;;;;;10.88;9.15;;;6.90;99.90;;;;;;4956403;28;20619;-75
2021/11/23 09:29:17;;;;;;;12.90;10.98;;;6.90;99.90;;;;;;4956993;28;20652;-76
2021/11/23 09:31:43;;;;;;;11.82;10.25;;;6.90;99.90;;;;;;4974269;28;20255;-76
2021/11/23 09:34:11;;;;;;;12.95;10.27;;;6.90;99.90;;;;;;4956638;28;20178;-76
2021/11/23 09:36:39;;;;;;;12.65;9.50;;;6.90;99.90;;;;;;4974062;28;20710;-76
2021/11/23 09:39:06;;;;;;;14.63;9.52;;;6.90;99.90;;;;;;4957917;28;20195;-76
2021/11/23 09:41:34;;;;;;;11.35;9.13;;;7.00;99.90;;;;;;4974183;28;20197;-76
2021/11/23 09:44:05;;;;;;;11.10;9.85;;;7.10;99.90;;;;;;4973852;28;20652;-76
2021/11/23 09:46:32;;;;;;;10.35;8.88;;;7.10;99.90;;;;;;4973586;28;20184;-76
2021/11/23 09:48:58;;;;;;;13.35;10.55;;;7.10;99.90;;;;;;4973739;28;20234;-76
2021/11/23 09:51:32;;;;;;;11.35;9.30;;;7.10;99.90;;;;;;4972824;28;20199;-76
2021/11/23 09:54:00;;;;;;;11.02;9.65;;;7.10;99.90;;;;;;4956165;28;20207;-76
2021/11/23 09:56:27;;;;;;;13.65;9.98;;;7.10;99.90;;;;;;4973437;28;20226;-76
2021/11/23 09:58:56;;;;;;;11.52;9.63;;;7.10;99.90;;;;;;4973710;28;20172;-76
2021/11/23 10:01:28;;;;;;;10.27;8.38;;;7.20;99.90;;;;;;4956607;28;20222;-76
2021/11/23 10:03:56;;;;;;;11.10;9.65;;;7.30;99.90;;;;;;4939920;28;20167;-76
2021/11/23 10:06:25;;;;;;;10.75;8.90;;;7.40;99.90;;;;;;4973363;28;20660;-76
2021/11/23 10:08:53;;;;;;;9.65;8.48;;;7.50;99.90;;;;;;4956307;28;20275;-76
2021/11/23 10:11:27;;;;;;;11.93;9.57;;;7.70;99.90;;;;;;4973754;28;20179;-76
2021/11/23 10:13:55;;;;;;;12.43;10.80;;;7.70;99.90;;;;;;4973540;28;20208;-76
2021/11/23 10:16:23;;;;;;;11.60;9.15;;;7.70;99.90;;;;;;4973030;28;20191;-76
2021/11/23 10:18:53;;;;;;;13.77;9.77;;;7.70;99.90;;;;;;4972720;28;20172;-76
2021/11/23 10:21:24;;;;;;;11.98;9.50;;;7.80;99.90;;;;;;4973365;28;20168;-76
2021/11/23 10:23:55;;;;;;;10.48;8.57;;;8.00;99.90;;;;;;4972838;28;20183;-76
2021/11/23 10:26:29;;;;;;;12.32;10.88;;;8.10;99.90;;;;;;4972888;28;20191;-76
2021/11/23 10:29:04;;;;;;;11.77;9.43;;;8.20;99.90;;;;;;4973397;28;20179;-76
2021/11/23 10:31:35;;;;;;;13.15;10.10;;;8.30;99.90;;;;;;4992628;28;20213;-77
2021/11/23 10:34:07;;;;;;;10.27;9.00;;;8.40;99.90;;;;;;5000175;28;20271;-77
2021/11/23 10:36:39;;;;;;;10.80;9.70;;;8.50;99.90;;;;;;5030827;28;20201;-76
2021/11/23 10:39:09;;;;;;;12.77;9.90;;;8.40;99.90;;;;;;5019133;28;20190;-76
2021/11/23 10:41:36;;;;;;;14.77;9.93;;;8.50;99.90;;;;;;4989224;28;20209;-76
2021/11/23 10:44:05;;;;;;;12.73;9.73;;;8.60;99.90;;;;;;5006952;28;20267;-77
2021/11/23 10:46:32;;;;;;;13.07;10.80;;;8.80;99.90;;;;;;4823892;29;1124081;-76
2021/11/23 10:49:00;;;;;;;12.05;9.73;;;9.00;99.90;;;;;;4814932;29;20255;-76
2021/11/23 10:51:37;;;;;;;11.20;9.10;;;9.10;99.90;;;;;;4692984;30;20199;-76
2021/11/23 10:54:17;;;;;;;11.07;9.43;;;9.20;99.90;;;;;;4663958;30;20237;-76
2021/11/23 10:56:58;;;;;;;11.85;9.55;;;9.30;99.90;;;;;;4663872;30;20273;-75
2021/11/23 10:59:24;;;;;;;11.27;9.80;;;9.20;99.90;;;;;;4664160;30;20267;-76
2021/11/23 11:01:50;;;;;;;14.55;9.70;;;9.20;99.90;;;;;;4663104;30;20650;-76
2021/11/23 11:04:16;;;;;;;13.55;9.23;;;9.10;99.90;;;;;;4663791;30;20179;-76
2021/11/23 11:06:42;;;;;;;9.13;7.53;;;9.10;99.90;;;;;;4676824;30;20680;-76
2021/11/23 11:09:08;;;;;;;14.00;10.50;;;9.10;99.90;;;;;;4664002;30;20593;-76
2021/11/23 11:11:35;;;;;;;12.98;9.07;;;9.20;99.90;;;;;;4664091;30;20948;-76
2021/11/23 11:14:03;;;;;;;12.70;8.88;;;9.30;99.90;;;;;;4663945;30;20567;-76
2021/11/23 11:16:29;;;;;;;12.77;9.05;;;9.40;99.90;;;;;;4676361;30;20209;-76
2021/11/23 11:19:09;;;;;;;10.68;9.15;;;9.50;99.90;;;;;;4663893;30;20175;-77
2021/11/23 11:22:05;;;;;;;10.40;9.18;;;9.50;99.90;;;;;;4664017;30;20263;-76
2021/11/23 11:24:50;;;;;;;15.07;11.23;;;9.70;99.90;;;;;;4676977;30;20199;-76
2021/11/23 11:27:35;;;;;;;11.63;10.20;;;9.80;99.90;;;;;;4663534;30;20234;-76
2021/11/23 11:30:19;;;;;;;14.60;11.00;;;9.90;99.90;;;;;;4665285;30;20262;-76
2021/11/23 11:32:46;;;;;;;13.60;9.88;;;10.00;99.90;;;;;;4667247;30;20298;-76
2021/11/23 11:35:28;;;;;;;11.35;10.15;;;10.10;99.90;;;;;;4667471;30;20243;-77
2021/11/23 11:38:05;;;;;;;11.70;10.23;;;10.20;99.90;;;;;;4680405;30;20262;-77
2021/11/23 11:40:42;;;;;;;12.48;9.73;;;10.40;99.90;;;;;;4667977;30;20249;-77
2021/11/23 11:43:10;;;;;;;17.20;11.50;;;10.50;99.90;;;;;;4667430;30;20574;-77
2021/11/23 11:45:41;;;;;;;14.00;10.52;;;10.60;99.90;;;;;;4670819;30;20203;-77
2021/11/23 11:51:10;;;;;;;14.25;9.82;;;10.70;99.90;;;;;;5068578;28;20775;-75
2021/11/23 11:53:49;;;;;;;14.05;11.45;;;10.80;99.90;;;;;;5068385;28;20181;-77
2021/11/23 11:56:39;;;;;;;13.43;11.45;;;10.90;99.90;;;;;;5068192;28;20237;-83
2021/11/23 11:59:24;;;;;;;12.50;10.32;;;10.90;99.90;;;;;;5069069;28;20172;-83
2021/11/23 12:02:04;;;;;;;15.43;11.20;;;10.90;99.90;;;;;;5068723;28;20168;-84
2021/11/23 12:04:33;;;;;;;15.70;13.13;;;10.90;99.90;;;;;;5068530;28;20192;-82
2021/11/23 12:07:07;;;;;;;19.20;13.57;;;10.90;99.90;;;;;;5069907;28;20605;-82
2021/11/23 12:09:42;;;;;;;18.83;12.88;;;10.90;99.90;;;;;;5068447;28;20195;-82
2021/11/23 12:12:11;;;;;;;18.05;14.40;;;10.90;99.90;;;;;;5068363;28;20192;-83
2021/11/23 12:15:03;;;;;;;16.85;12.68;;;10.90;99.90;;;;;;5050141;28;20660;-82
2021/11/23 12:17:57;;;;;;;19.67;12.77;;;10.90;99.90;;;;;;5067820;28;20184;-82
2021/11/23 12:21:02;;;;;;;12.98;9.98;;;10.90;99.90;;;;;;5067292;28;20172;-82
2021/11/23 12:23:39;;;;;;;14.07;9.60;;;10.90;99.90;;;;;;5067978;28;20226;-82
2021/11/23 12:26:11;;;;;;;11.30;9.40;;;11.00;99.90;;;;;;5068593;28;20200;-82
2021/11/23 12:28:37;;;;;;;16.63;10.77;;;11.10;99.90;;;;;;5066660;28;20263;-82
2021/11/23 12:31:09;;;;;;;13.57;11.45;;;11.20;99.90;;;;;;5068322;28;20167;-82
2021/11/23 12:33:53;;;;;;;14.18;9.43;;;11.20;99.90;;;;;;5067195;28;20196;-82
2021/11/23 12:36:25;;;;;;;13.20;11.02;;;11.20;99.90;;;;;;5078022;28;20183;-83
2021/11/23 12:38:53;;;;;;;14.23;10.20;;;11.20;99.90;;;;;;5084709;28;20330;-82
2021/11/23 12:41:21;;;;;;;14.13;10.98;;;11.20;99.90;;;;;;5078494;28;20177;-82
2021/11/23 12:43:48;;;;;;;15.88;10.98;;;11.20;99.90;;;;;;5087268;28;20164;-81
2021/11/23 12:46:23;;;;;;;15.02;11.13;;;11.20;99.90;;;;;;5072977;28;20203;-83
2021/11/23 12:48:51;;;;;;;14.30;10.88;;;11.20;99.90;;;;;;5078874;28;20322;-82
2021/11/23 12:51:32;;;;;;;12.40;10.38;;;11.20;99.90;;;;;;5085239;28;20693;-83
2021/11/23 12:54:03;;;;;;;12.65;10.25;;;11.20;99.90;;;;;;5062368;28;20179;-82